createdAt,value
2018-12-09T00:02:05.735Z,93943.22
2018-12-09T00:05:09.237Z,93929.34
2018-12-09T00:08:12.578Z,93943.00
2018-12-09T00:11:15.914Z,93943.69
2018-12-09T00:14:19.214Z,93926.09
2018-12-09T00:17:22.654Z,93932.89
2018-12-09T00:20:25.991Z,93919.63
2018-12-09T00:23:29.288Z,93899.86
2018-12-09T00:26:32.625Z,93904.23
2018-12-09T00:29:35.929Z,93892.67
2018-12-09T00:32:39.233Z,93892.34
2018-12-09T00:35:43.029Z,93867.34
2018-12-09T00:38:46.337Z,93863.61
2018-12-09T00:41:49.657Z,93863.39
2018-12-09T00:44:53.373Z,93861.33
2018-12-09T00:47:56.715Z,93848.30
2018-12-09T00:51:01.055Z,93848.97
2018-12-09T00:54:04.439Z,93830.94
2018-12-09T00:57:07.905Z,93816.45
2018-12-09T01:00:12.166Z,93799.30
2018-12-09T01:03:15.466Z,93806.34
2018-12-09T01:06:18.894Z,93802.39
2018-12-09T01:09:22.186Z,93809.91
2018-12-09T01:12:25.628Z,93792.80
2018-12-09T01:15:29.121Z,93812.50
2018-12-09T01:18:32.422Z,93787.52
2018-12-09T01:21:35.719Z,93779.62
2018-12-09T01:24:39.050Z,93772.50
2018-12-09T01:27:42.457Z,93780.69
2018-12-09T01:30:45.862Z,93771.59
2018-12-09T01:33:49.262Z,93760.17
2018-12-09T01:36:52.590Z,93748.08
2018-12-09T01:39:55.917Z,93756.66
2018-12-09T01:42:59.210Z,93738.41
2018-12-09T01:46:02.706Z,93736.53
2018-12-09T01:49:06.022Z,93736.38
2018-12-09T01:52:09.427Z,93747.25
2018-12-09T01:55:12.862Z,93743.56
2018-12-09T01:58:16.282Z,93738.73
2018-12-09T02:01:19.588Z,93735.13
2018-12-09T02:04:23.045Z,93721.77
2018-12-09T02:07:26.430Z,93724.77
2018-12-09T02:10:29.958Z,93725.52
2018-12-09T02:13:33.337Z,93719.56
2018-12-09T02:16:36.688Z,93720.87
2018-12-09T02:19:40.102Z,93719.27
2018-12-09T02:22:43.690Z,93703.30
2018-12-09T02:25:46.987Z,93702.80
2018-12-09T02:28:50.464Z,93694.45
2018-12-09T02:31:53.792Z,93692.02
2018-12-09T02:34:57.579Z,93703.38
2018-12-09T02:38:01.028Z,93694.31
2018-12-09T02:41:04.453Z,93729.70
2018-12-09T02:44:07.889Z,93677.61
2018-12-09T02:47:11.973Z,93725.84
2018-12-09T02:50:15.352Z,93720.03
2018-12-09T02:53:19.383Z,93728.93
2018-12-09T02:56:22.853Z,93725.22
2018-12-09T02:59:26.668Z,93749.04
2018-12-09T03:02:30.083Z,93742.95
2018-12-09T03:05:33.813Z,93723.22
2018-12-09T03:08:37.232Z,93697.04
2018-12-09T03:11:40.893Z,93682.44
2018-12-09T03:14:44.194Z,93686.33
2018-12-09T03:17:47.610Z,93675.30
2018-12-09T03:20:51.006Z,93665.07
2018-12-09T03:23:54.414Z,93638.23
2018-12-09T03:26:57.834Z,93647.21
2018-12-09T03:30:01.170Z,93639.55
2018-12-09T03:33:04.521Z,93629.06
2018-12-09T03:36:07.929Z,93621.36
2018-12-09T03:39:11.354Z,93610.91
2018-12-09T03:42:14.790Z,93623.16
2018-12-09T03:45:18.230Z,93606.73
2018-12-09T03:48:21.683Z,93601.90
2018-12-09T03:51:24.980Z,93594.75
2018-12-09T03:54:28.364Z,93578.50
2018-12-09T03:57:31.870Z,93563.78
2018-12-09T04:00:35.276Z,93554.22
2018-12-09T04:03:38.707Z,93558.17
2018-12-09T04:06:42.101Z,93546.25
2018-12-09T04:09:45.929Z,93546.25
2018-12-09T04:12:49.352Z,93550.69
2018-12-09T04:15:52.685Z,93547.98
2018-12-09T04:18:56.220Z,93554.14
2018-12-09T04:21:59.610Z,93551.59
2018-12-09T04:25:03.125Z,93556.11
2018-12-09T04:28:06.510Z,93551.10
2018-12-09T04:31:09.915Z,93574.48
2018-12-09T04:34:13.292Z,93565.94
2018-12-09T04:37:16.705Z,93560.45
2018-12-09T04:40:20.001Z,93577.67
2018-12-09T04:43:23.555Z,93596.19
2018-12-09T04:46:27.049Z,93610.83
2018-12-09T04:49:30.341Z,93616.00
2018-12-09T04:52:33.710Z,93621.37
2018-12-09T04:55:37.406Z,93654.50
2018-12-09T05:02:03.430Z,93653.08
2018-12-09T05:05:07.129Z,93669.58
2018-12-09T05:08:10.439Z,93670.75
2018-12-09T05:11:13.931Z,93690.22
2018-12-09T05:14:17.469Z,93683.58
2018-12-09T05:17:20.868Z,93684.68
2018-12-09T05:20:24.336Z,93697.50
2018-12-09T05:23:27.764Z,93716.54
2018-12-09T05:26:31.208Z,93694.89
2018-12-09T05:29:34.568Z,93679.20
2018-12-09T05:32:37.878Z,93704.45
2018-12-09T05:35:41.428Z,93724.78
2018-12-09T05:38:44.807Z,93701.48
2018-12-09T05:41:48.257Z,93709.17
2018-12-09T05:44:52.394Z,93701.81
2018-12-09T05:47:55.866Z,93695.58
2018-12-09T05:50:59.302Z,93702.16
2018-12-09T05:54:02.862Z,93707.98
2018-12-09T05:57:06.596Z,93695.99
2018-12-09T06:00:10.096Z,93692.16
2018-12-09T06:03:13.520Z,93690.08
2018-12-09T06:06:16.951Z,93685.03
2018-12-09T06:09:20.341Z,93697.11
2018-12-09T06:12:23.818Z,93691.60
2018-12-09T06:15:27.218Z,93702.59
2018-12-09T06:18:31.049Z,93726.43
2018-12-09T06:21:34.442Z,93731.05
2018-12-09T06:24:37.869Z,93771.82
2018-12-09T06:27:41.385Z,93816.76
2018-12-09T06:30:44.777Z,93764.61
2018-12-09T06:33:48.170Z,93806.20
2018-12-09T06:36:51.563Z,93828.27
2018-12-09T06:39:54.946Z,93849.95
2018-12-09T06:42:59.094Z,93891.80
2018-12-09T06:46:02.483Z,93874.92
2018-12-09T06:49:05.928Z,93861.52
2018-12-09T06:52:09.833Z,93864.28
2018-12-09T06:55:14.113Z,93851.88
2018-12-09T06:58:17.499Z,93837.88
2018-12-09T07:01:20.950Z,93839.59
2018-12-09T07:04:24.365Z,93821.27
2018-12-09T07:07:27.850Z,93821.27
2018-12-09T07:10:31.236Z,93800.98
2018-12-09T07:13:35.033Z,93802.94
2018-12-09T07:16:38.448Z,93814.58
2018-12-09T07:19:41.884Z,93806.23
2018-12-09T07:22:45.333Z,93815.87
2018-12-09T07:25:48.894Z,93803.98
2018-12-09T07:28:52.466Z,93793.83
2018-12-09T07:31:55.965Z,93806.86
2018-12-09T07:38:16.278Z,93818.77
2018-12-09T07:41:19.635Z,93843.78
2018-12-09T07:44:23.077Z,93840.42
2018-12-09T07:47:28.288Z,93847.15
2018-12-09T07:50:31.713Z,93850.23
2018-12-09T07:53:35.103Z,93858.44
2018-12-09T07:56:38.613Z,93859.14
2018-12-09T07:59:41.889Z,93855.59
2018-12-09T08:02:45.209Z,93853.77
2018-12-09T08:05:48.525Z,93850.91
2018-12-09T08:08:52.135Z,93855.55
2018-12-09T08:11:56.684Z,93860.48
2018-12-09T08:15:00.018Z,93862.58
2018-12-09T08:18:03.410Z,93868.19
2018-12-09T08:21:06.758Z,93868.73
2018-12-09T08:24:10.106Z,93859.56
2018-12-09T08:27:13.447Z,93882.45
2018-12-09T08:30:16.922Z,93896.49
2018-12-09T08:33:20.240Z,93893.95
2018-12-09T08:36:23.670Z,93889.38
2018-12-09T08:39:27.097Z,93899.66
2018-12-09T08:42:30.413Z,93901.52
2018-12-09T08:45:34.035Z,93902.80
2018-12-09T08:48:37.342Z,93904.81
2018-12-09T08:51:40.668Z,93914.91
2018-12-09T08:54:44.032Z,93915.98
2018-12-09T09:01:04.866Z,93920.52
2018-12-09T09:04:08.208Z,93917.27
2018-12-09T09:07:11.524Z,93918.16
2018-12-09T09:10:14.959Z,93928.55
2018-12-09T09:13:18.386Z,93939.23
2018-12-09T09:16:21.789Z,93940.05
2018-12-09T09:19:25.087Z,93935.39
2018-12-09T09:22:28.559Z,93953.66
2018-12-09T09:25:31.918Z,93963.28
2018-12-09T09:28:35.220Z,93973.26
2018-12-09T09:31:38.543Z,93971.55
2018-12-09T09:34:41.850Z,93978.23
2018-12-09T09:37:45.265Z,93983.59
2018-12-09T09:40:48.569Z,93996.98
2018-12-09T09:43:51.868Z,93992.88
2018-12-09T09:46:55.558Z,94002.06
2018-12-09T09:49:58.983Z,94018.87
2018-12-09T09:53:02.458Z,94000.58
2018-12-09T09:56:06.049Z,93988.83
2018-12-09T09:59:09.439Z,93994.58
2018-12-09T10:02:12.809Z,94000.77
2018-12-09T10:05:16.173Z,93998.27
2018-12-09T10:08:19.572Z,94004.77
2018-12-09T10:11:22.926Z,93999.42
2018-12-09T10:14:26.258Z,93989.22
2018-12-09T10:17:29.619Z,93989.60
2018-12-09T10:20:32.969Z,93993.13
2018-12-09T10:23:36.445Z,93987.23
2018-12-09T10:26:39.806Z,93986.73
2018-12-09T10:29:43.262Z,93988.16
2018-12-09T10:32:50.366Z,93996.16
2018-12-09T10:35:53.676Z,93998.02
2018-12-09T10:38:56.980Z,93988.14
2018-12-09T10:42:00.459Z,93980.98
2018-12-09T10:45:04.146Z,93985.09
2018-12-09T10:48:07.478Z,93983.95
2018-12-09T10:51:14.230Z,93988.31
2018-12-09T10:54:22.829Z,93983.02
2018-12-09T10:57:26.167Z,93982.05
2018-12-09T11:00:35.777Z,93975.13
2018-12-09T11:03:39.226Z,93958.34
2018-12-09T11:06:42.764Z,93955.02
2018-12-09T11:09:46.393Z,93938.84
2018-12-09T11:12:49.783Z,93945.66
2018-12-09T11:15:53.341Z,93949.88
2018-12-09T11:18:56.812Z,93956.92
2018-12-09T11:22:00.144Z,93942.75
2018-12-09T11:25:04.413Z,93931.63
2018-12-09T11:31:24.825Z,93919.27
2018-12-09T11:34:28.165Z,93908.70
2018-12-09T11:37:31.538Z,93906.86
2018-12-09T11:40:34.854Z,93890.95
2018-12-09T11:43:38.206Z,93878.75
2018-12-09T11:46:41.596Z,93876.39
2018-12-09T11:49:44.957Z,93873.09
2018-12-09T11:52:48.686Z,93879.60
2018-12-09T11:55:52.079Z,93886.33
2018-12-09T11:58:55.522Z,93878.19
2018-12-09T12:01:58.816Z,93866.88
2018-12-09T12:05:02.120Z,93868.65
2018-12-09T12:08:05.545Z,93856.78
2018-12-09T12:11:08.882Z,93855.34
2018-12-09T12:14:12.220Z,93861.83
2018-12-09T12:17:16.562Z,93856.23
2018-12-09T12:20:19.907Z,93864.88
2018-12-09T12:23:23.406Z,93846.88
2018-12-09T12:26:26.740Z,93845.56
2018-12-09T12:29:30.204Z,93863.14
2018-12-09T12:32:33.558Z,93854.55
2018-12-09T12:35:37.504Z,93855.31
2018-12-09T12:38:40.909Z,93842.87
2018-12-09T12:41:44.384Z,93849.89
2018-12-09T12:44:47.803Z,93870.00
2018-12-09T12:47:51.226Z,93855.82
2018-12-09T12:50:54.591Z,93861.06
2018-12-09T12:53:58.031Z,93860.30
2018-12-09T12:57:01.414Z,93853.64
2018-12-09T13:03:27.821Z,93857.15
2018-12-09T13:06:31.844Z,93856.03
2018-12-09T13:09:35.337Z,93852.00
2018-12-09T13:12:38.719Z,93847.52
2018-12-09T13:15:43.481Z,93846.30
2018-12-09T13:18:46.843Z,93842.38
2018-12-09T13:21:51.311Z,93841.84
2018-12-09T13:24:55.193Z,93840.44
2018-12-09T13:27:58.645Z,93828.73
2018-12-09T13:31:02.128Z,93825.75
2018-12-09T13:34:05.606Z,93816.00
2018-12-09T13:37:08.987Z,93815.34
2018-12-09T13:40:12.356Z,93817.20
2018-12-09T13:43:15.726Z,93822.16
2018-12-09T13:46:19.111Z,93812.28
2018-12-09T13:49:22.407Z,93826.98
2018-12-09T13:52:25.804Z,93819.09
2018-12-09T13:55:29.225Z,93830.61
2018-12-09T13:58:34.483Z,93832.17
2018-12-09T14:01:37.929Z,93845.04
2018-12-09T14:04:41.490Z,93838.80
2018-12-09T14:07:44.832Z,93851.41
2018-12-09T14:10:48.563Z,93859.38
2018-12-09T14:13:51.899Z,93865.87
2018-12-09T14:16:56.719Z,93870.45
2018-12-09T14:20:00.194Z,93877.56
2018-12-09T14:23:04.666Z,93875.50
2018-12-09T14:26:08.986Z,93893.08
2018-12-09T14:29:12.349Z,93901.52
2018-12-09T14:32:15.821Z,93907.83
2018-12-09T14:35:19.950Z,93902.88
2018-12-09T14:38:23.286Z,93909.03
2018-12-09T14:41:26.735Z,93913.30
2018-12-09T14:44:30.047Z,93912.65
2018-12-09T14:47:33.739Z,93908.56
2018-12-09T14:50:37.108Z,93918.64
2018-12-09T14:53:40.903Z,93912.23
2018-12-09T14:56:44.372Z,93925.06
2018-12-09T14:59:47.698Z,93926.58
2018-12-09T15:02:51.072Z,93928.95
2018-12-09T15:05:54.481Z,93920.23
2018-12-09T15:08:57.874Z,93932.30
2018-12-09T15:12:01.287Z,93927.93
2018-12-09T15:15:05.025Z,93928.33
2018-12-09T15:18:08.357Z,93940.05
2018-12-09T15:21:11.738Z,93948.40
2018-12-09T15:24:15.110Z,93942.95
2018-12-09T15:27:19.485Z,93948.09
2018-12-09T15:30:22.789Z,93945.73
2018-12-09T15:33:26.154Z,93952.58
2018-12-09T15:36:29.526Z,93949.25
2018-12-09T15:39:32.921Z,93937.60
2018-12-09T15:42:36.258Z,93929.79
2018-12-09T15:45:39.616Z,93950.77
2018-12-09T15:48:43.225Z,93952.73
2018-12-09T15:51:46.703Z,93940.67
2018-12-09T15:54:50.063Z,93941.45
2018-12-09T15:57:53.445Z,93945.66
2018-12-09T16:00:57.034Z,93952.89
2018-12-09T16:04:00.474Z,93959.77
2018-12-09T16:07:03.860Z,93958.08
2018-12-09T16:10:09.284Z,93962.55
2018-12-09T16:13:12.614Z,93966.02
2018-12-09T16:16:15.923Z,93965.63
2018-12-09T16:19:19.261Z,93970.89
2018-12-09T16:22:22.605Z,93971.27
2018-12-09T16:25:25.904Z,93984.88
2018-12-09T16:28:29.212Z,93984.03
2018-12-09T16:31:32.575Z,93982.92
2018-12-09T16:34:35.867Z,93990.61
2018-12-09T16:37:39.261Z,93980.94
2018-12-09T16:40:43.620Z,93992.59
2018-12-09T16:43:47.008Z,93997.90
2018-12-09T16:46:50.339Z,93997.00
2018-12-09T16:53:11.223Z,94010.73
2018-12-09T16:56:14.558Z,94005.17
2018-12-09T16:59:17.918Z,93997.05
2018-12-09T17:02:21.260Z,94002.61
2018-12-09T17:05:24.607Z,94003.16
2018-12-09T17:08:28.165Z,94009.97
2018-12-09T17:11:31.791Z,94020.13
2018-12-09T17:14:35.214Z,94024.91
2018-12-09T17:17:38.538Z,94033.50
2018-12-09T17:20:42.270Z,94041.10
2018-12-09T17:23:45.589Z,94045.82
2018-12-09T17:26:49.233Z,94047.75
2018-12-09T17:29:52.602Z,94044.41
2018-12-09T17:32:56.053Z,94056.17
2018-12-09T17:35:59.412Z,94059.42
2018-12-09T17:39:02.765Z,94066.77
2018-12-09T17:42:06.189Z,94061.13
2018-12-09T17:45:09.613Z,94073.09
2018-12-09T17:48:12.963Z,94075.04
2018-12-09T17:51:16.364Z,94076.64
2018-12-09T17:54:19.752Z,94075.04
2018-12-09T17:57:23.093Z,94083.83
2018-12-09T18:00:26.468Z,94079.58
2018-12-09T18:03:31.943Z,94090.10
2018-12-09T18:06:35.241Z,94071.92
2018-12-09T18:09:39.644Z,94081.91
2018-12-09T18:12:47.959Z,94087.70
2018-12-09T18:19:08.109Z,94093.33
2018-12-09T18:22:11.522Z,94102.53
2018-12-09T18:25:14.936Z,94110.66
2018-12-09T18:28:18.366Z,94111.27
2018-12-09T18:31:23.021Z,94123.41
2018-12-09T18:34:26.462Z,94132.61
2018-12-09T18:37:29.943Z,94137.27
2018-12-09T18:40:35.639Z,94148.15
2018-12-09T18:43:42.686Z,94156.69
2018-12-09T18:46:46.025Z,94158.67
2018-12-09T18:49:49.328Z,94168.35
2018-12-09T18:52:52.644Z,94178.94
2018-12-09T18:55:55.949Z,94180.48
2018-12-09T18:58:59.356Z,94182.20
2018-12-09T19:02:02.711Z,94190.70
2018-12-09T19:05:07.141Z,94198.28
2018-12-09T19:08:10.642Z,94209.42
2018-12-09T19:11:13.992Z,94219.17
2018-12-09T19:14:17.585Z,94212.29
2018-12-09T19:17:21.084Z,94222.41
2018-12-09T19:20:24.415Z,94229.46
2018-12-09T19:23:27.875Z,94233.95
2018-12-09T19:26:31.367Z,94235.27
2018-12-09T19:29:34.760Z,94237.11
2018-12-09T19:32:38.155Z,94237.96
2018-12-09T19:35:41.714Z,94250.20
2018-12-09T19:42:01.973Z,94255.70
2018-12-09T19:45:05.780Z,94260.97
2018-12-09T19:48:09.125Z,94280.23
2018-12-09T19:51:12.500Z,94274.81
2018-12-09T19:54:15.907Z,94288.38
2018-12-09T19:57:19.567Z,94302.08
2018-12-09T20:00:22.871Z,94299.75
2018-12-09T20:03:26.257Z,94300.05
2018-12-09T20:06:29.616Z,94297.42
2018-12-09T20:09:33.110Z,94296.64
2018-12-09T20:12:36.640Z,94300.92
2018-12-09T20:15:40.082Z,94303.86
2018-12-09T20:18:43.476Z,94315.77
2018-12-09T20:21:47.005Z,94314.70
2018-12-09T20:24:50.362Z,94321.11
2018-12-09T20:27:53.693Z,94321.34
2018-12-09T20:30:57.300Z,94336.45
2018-12-09T20:34:00.673Z,94343.81
2018-12-09T20:37:04.021Z,94345.50
2018-12-09T20:40:07.545Z,94353.09
2018-12-09T20:43:10.852Z,94363.77
2018-12-09T20:46:14.278Z,94363.23
2018-12-09T20:49:17.672Z,94363.32
2018-12-09T20:52:21.195Z,94370.68
2018-12-09T20:55:24.543Z,94362.55
2018-12-09T20:58:28.549Z,94381.73
2018-12-09T21:01:31.893Z,94382.09
2018-12-09T21:04:35.781Z,94394.89
2018-12-09T21:07:39.324Z,94393.10
2018-12-09T21:10:42.674Z,94401.71
2018-12-09T21:13:46.208Z,94396.12
2018-12-09T21:16:49.520Z,94406.08
2018-12-09T21:19:52.941Z,94409.61
2018-12-09T21:22:56.345Z,94410.69
2018-12-09T21:25:59.726Z,94418.88
2018-12-09T21:29:03.061Z,94422.05
2018-12-09T21:32:07.162Z,94423.91
2018-12-09T21:35:10.498Z,94423.06
2018-12-09T21:38:13.852Z,94441.25
2018-12-09T21:41:17.189Z,94444.03
2018-12-09T21:44:20.496Z,94441.73
2018-12-09T21:47:23.789Z,94445.50
2018-12-09T21:50:27.886Z,94457.19
2018-12-09T21:53:31.237Z,94481.92
2018-12-09T21:56:34.632Z,94498.66
2018-12-09T21:59:37.953Z,94496.61
2018-12-09T22:02:41.369Z,94489.94
2018-12-09T22:05:45.428Z,94497.95
2018-12-09T22:08:48.725Z,94505.44
2018-12-09T22:11:52.600Z,94517.19
2018-12-09T22:14:55.994Z,94525.84
2018-12-09T22:17:59.324Z,94528.42
2018-12-09T22:21:02.763Z,94540.02
2018-12-09T22:24:06.077Z,94549.87
2018-12-09T22:27:09.433Z,94549.87
2018-12-09T22:30:12.905Z,94554.88
2018-12-09T22:33:16.492Z,94552.91
2018-12-09T22:36:19.816Z,94556.12
2018-12-09T22:39:23.136Z,94567.23
2018-12-09T22:42:26.497Z,94574.87
2018-12-09T22:45:29.886Z,94573.73
2018-12-09T22:48:33.198Z,94578.08
2018-12-09T22:51:36.797Z,94583.50
2018-12-09T22:54:40.085Z,94585.06
2018-12-09T23:01:04.623Z,94580.91
2018-12-09T23:04:07.969Z,94587.72
2018-12-09T23:07:16.793Z,94595.07
2018-12-09T23:10:21.009Z,94595.53
2018-12-09T23:13:24.346Z,94605.42
2018-12-09T23:16:27.860Z,94607.68
2018-12-09T23:19:31.179Z,94602.55
2018-12-09T23:22:34.525Z,94607.02
2018-12-09T23:25:38.772Z,94613.91
2018-12-09T23:28:42.094Z,94601.06
2018-12-09T23:31:45.474Z,94597.84
2018-12-09T23:34:48.895Z,94599.52
2018-12-09T23:37:52.309Z,94615.12
2018-12-09T23:40:55.657Z,94621.89
2018-12-09T23:43:59.020Z,94636.03
2018-12-09T23:47:02.329Z,94632.62
2018-12-09T23:50:05.908Z,94646.02
2018-12-09T23:53:09.365Z,94638.98
2018-12-09T23:56:12.718Z,94645.60
2018-12-09T23:59:16.085Z,94638.13
